createdAt,value
2023-03-22T00:00:15.575Z,75.80
2023-03-22T00:01:19.938Z,76.05
2023-03-22T00:02:23.218Z,76.03
2023-03-22T00:03:25.581Z,76.01
2023-03-22T00:04:28.018Z,76.09
2023-03-22T00:05:33.386Z,75.60
2023-03-22T00:06:35.669Z,75.93
2023-03-22T00:07:38.040Z,75.78
2023-03-22T00:08:40.050Z,75.61
2023-03-22T00:09:42.220Z,75.81
2023-03-22T00:10:44.213Z,75.63
2023-03-22T00:11:46.412Z,75.79
2023-03-22T00:12:48.449Z,75.87
2023-03-22T00:13:52.751Z,75.86
2023-03-22T00:14:55.314Z,75.74
2023-03-22T00:15:57.885Z,75.89
2023-03-22T00:17:00.103Z,76.12
2023-03-22T00:18:05.874Z,75.93
2023-03-22T00:19:07.890Z,75.74
2023-03-22T00:20:11.562Z,75.94
2023-03-22T00:21:15.889Z,76.47
2023-03-22T00:22:18.028Z,76.62
2023-03-22T00:23:20.549Z,76.15
2023-03-22T00:24:22.548Z,76.17
2023-03-22T00:25:24.436Z,76.06
2023-03-22T00:26:26.429Z,75.92
2023-03-22T00:27:28.480Z,76.55
2023-03-22T00:28:30.824Z,75.70
2023-03-22T00:29:32.825Z,76.04
2023-03-22T00:30:35.511Z,76.14
2023-03-22T00:31:37.552Z,75.85
2023-03-22T00:32:39.664Z,76.16
2023-03-22T00:33:41.838Z,76.29
2023-03-22T00:34:44.529Z,76.47
2023-03-22T00:35:55.016Z,76.30
2023-03-22T00:36:57.087Z,76.50
2023-03-22T00:38:06.387Z,76.28
2023-03-22T00:39:08.904Z,76.51
2023-03-22T00:40:14.696Z,76.86
2023-03-22T00:41:20.617Z,76.99
2023-03-22T00:42:22.692Z,77.03
2023-03-22T00:43:24.811Z,76.79
2023-03-22T00:44:27.175Z,76.83
2023-03-22T00:45:29.281Z,76.92
2023-03-22T00:46:31.520Z,77.18
2023-03-22T00:47:33.878Z,77.10
2023-03-22T00:48:36.159Z,77.04
2023-03-22T00:49:38.150Z,77.19
2023-03-22T00:50:41.492Z,77.02
2023-03-22T00:51:43.493Z,77.46
2023-03-22T00:52:45.508Z,77.73
2023-03-22T00:53:51.136Z,77.79
2023-03-22T00:54:53.425Z,77.70
2023-03-22T00:55:57.364Z,77.62
2023-03-22T00:56:59.408Z,77.65
2023-03-22T00:58:02.011Z,78.00
2023-03-22T00:59:04.639Z,77.92
2023-03-22T01:00:13.985Z,78.12
2023-03-22T01:01:16.237Z,78.11
2023-03-22T01:02:18.221Z,78.05
2023-03-22T01:03:22.231Z,78.13
2023-03-22T01:04:26.492Z,78.28
2023-03-22T01:05:28.594Z,78.16
2023-03-22T01:06:30.774Z,78.15
2023-03-22T01:07:33.546Z,78.44
2023-03-22T01:08:39.324Z,78.48
2023-03-22T01:11:04.668Z,78.77
2023-03-22T01:12:07.168Z,78.89
2023-03-22T01:13:09.998Z,78.60
2023-03-22T01:14:14.073Z,78.47
2023-03-22T01:15:15.935Z,78.08
2023-03-22T01:16:19.219Z,78.57
2023-03-22T01:17:21.431Z,78.77
2023-03-22T01:18:23.978Z,78.84
2023-03-22T01:19:27.594Z,79.05
2023-03-22T01:20:30.447Z,78.82
2023-03-22T01:21:32.683Z,78.98
2023-03-22T01:22:34.743Z,79.50
2023-03-22T01:23:37.741Z,80.04
2023-03-22T01:24:39.662Z,79.42
2023-03-22T01:25:41.739Z,79.31
2023-03-22T01:26:43.659Z,79.23
2023-03-22T01:27:46.190Z,79.14
2023-03-22T01:28:48.211Z,79.43
2023-03-22T01:29:50.971Z,79.52
2023-03-22T01:30:53.158Z,79.59
2023-03-22T01:31:55.222Z,79.39
2023-03-22T01:32:57.444Z,79.64
2023-03-22T01:33:59.415Z,79.90
2023-03-22T01:35:01.494Z,79.71
2023-03-22T01:36:04.198Z,79.60
2023-03-22T01:37:06.421Z,79.88
2023-03-22T01:38:08.510Z,79.82
2023-03-22T01:39:10.849Z,79.57
2023-03-22T01:40:14.613Z,79.78
2023-03-22T01:41:17.816Z,79.88
2023-03-22T01:42:22.194Z,79.87
2023-03-22T01:43:24.222Z,79.91
2023-03-22T01:44:31.055Z,80.16
2023-03-22T01:45:37.012Z,80.16
2023-03-22T01:46:41.433Z,80.14
2023-03-22T01:47:54.275Z,80.72
2023-03-22T01:48:56.518Z,79.94
2023-03-22T01:49:58.627Z,80.16
2023-03-22T01:51:11.257Z,80.44
2023-03-22T01:52:15.704Z,80.41
2023-03-22T01:53:19.744Z,80.59
2023-03-22T01:54:47.382Z,80.45
2023-03-22T01:55:50.004Z,80.38
2023-03-22T01:56:52.119Z,80.42
2023-03-22T01:57:55.626Z,80.60
2023-03-22T01:58:57.787Z,80.71
2023-03-22T02:00:00.816Z,80.78
2023-03-22T02:01:04.447Z,80.72
2023-03-22T02:02:07.184Z,80.82
2023-03-22T02:03:10.388Z,80.81
2023-03-22T02:04:16.885Z,80.70
2023-03-22T02:05:19.962Z,80.60
2023-03-22T02:06:22.181Z,81.01
2023-03-22T02:07:27.292Z,80.65
2023-03-22T02:08:31.039Z,80.95
2023-03-22T02:09:34.414Z,80.82
2023-03-22T02:10:36.666Z,81.15
2023-03-22T02:11:42.224Z,80.80
2023-03-22T02:12:54.259Z,80.97
2023-03-22T02:14:17.900Z,81.00
2023-03-22T02:15:28.048Z,80.90
2023-03-22T02:16:54.185Z,80.84
2023-03-22T02:18:34.671Z,80.85
2023-03-22T02:19:45.695Z,81.20
2023-03-22T02:20:56.720Z,80.92
2023-03-22T02:22:28.280Z,80.90
2023-03-22T02:24:07.436Z,80.78
2023-03-22T02:25:24.553Z,81.00
2023-03-22T02:26:47.174Z,80.96
2023-03-22T02:28:14.840Z,80.93
2023-03-22T02:29:46.143Z,80.98
2023-03-22T02:30:51.446Z,81.08
2023-03-22T02:32:36.886Z,81.31
2023-03-22T02:34:00.086Z,81.18
2023-03-22T02:35:27.991Z,81.02
2023-03-22T02:37:23.777Z,80.89
2023-03-22T02:38:47.853Z,80.97
2023-03-22T02:39:59.711Z,81.42
2023-03-22T02:41:04.729Z,81.43
2023-03-22T02:42:25.168Z,81.40
2023-03-22T02:44:02.047Z,81.69
2023-03-22T02:45:41.747Z,81.35
2023-03-22T02:46:48.901Z,81.24
2023-03-22T02:48:03.042Z,81.29
2023-03-22T02:49:34.336Z,81.41
2023-03-22T02:50:56.901Z,81.34
2023-03-22T02:52:01.714Z,81.17
2023-03-22T02:53:10.731Z,81.42
2023-03-22T02:54:44.900Z,80.87
2023-03-22T02:56:03.813Z,81.33
2023-03-22T02:57:14.198Z,81.08
2023-03-22T02:58:30.221Z,81.24
2023-03-22T02:59:37.700Z,80.95
2023-03-22T03:00:42.045Z,81.27
2023-03-22T03:01:54.834Z,80.95
2023-03-22T03:03:02.171Z,81.20
2023-03-22T03:04:09.757Z,81.15
2023-03-22T03:05:13.720Z,81.07
2023-03-22T03:06:20.849Z,81.17
2023-03-22T03:07:27.504Z,80.89
2023-03-22T03:08:31.120Z,80.73
2023-03-22T03:09:33.870Z,80.88
2023-03-22T03:10:36.471Z,81.00
2023-03-22T03:11:38.467Z,81.12
2023-03-22T03:12:40.609Z,80.71
2023-03-22T03:13:42.691Z,80.84
2023-03-22T03:14:45.016Z,80.65
2023-03-22T03:15:55.462Z,80.55
2023-03-22T03:17:25.100Z,80.50
2023-03-22T03:19:01.698Z,80.31
2023-03-22T03:20:22.060Z,79.78
2023-03-22T03:21:45.571Z,80.17
2023-03-22T03:23:07.428Z,80.04
2023-03-22T03:24:23.636Z,80.03
2023-03-22T03:25:51.786Z,80.01
2023-03-22T03:26:56.337Z,80.01
2023-03-22T03:28:10.251Z,79.84
2023-03-22T03:29:15.698Z,79.88
2023-03-22T03:30:31.832Z,79.76
2023-03-22T03:31:39.939Z,79.69
2023-03-22T03:32:52.939Z,79.62
2023-03-22T03:34:05.969Z,79.35
2023-03-22T03:35:22.757Z,79.30
2023-03-22T03:36:25.987Z,79.67
2023-03-22T03:37:35.433Z,78.40
2023-03-22T03:38:42.733Z,78.48
2023-03-22T03:40:09.761Z,78.47
2023-03-22T03:41:18.941Z,77.78
2023-03-22T03:42:22.825Z,77.42
2023-03-22T03:43:25.830Z,76.70
2023-03-22T03:44:30.657Z,75.92
2023-03-22T03:45:35.025Z,75.75
2023-03-22T03:46:37.405Z,75.04
2023-03-22T03:47:39.778Z,74.30
2023-03-22T03:48:47.176Z,75.04
2023-03-22T03:49:50.446Z,73.63
2023-03-22T03:50:54.426Z,72.66
2023-03-22T03:51:56.786Z,72.23
2023-03-22T03:52:59.262Z,72.53
2023-03-22T03:54:01.278Z,71.94
2023-03-22T03:55:03.372Z,71.39
2023-03-22T03:56:05.987Z,71.54
2023-03-22T03:57:07.953Z,70.69
2023-03-22T03:58:10.374Z,70.52
2023-03-22T03:59:12.541Z,70.06
2023-03-22T04:00:15.455Z,69.02
2023-03-22T04:01:19.875Z,69.58
2023-03-22T04:02:21.867Z,68.78
2023-03-22T04:03:23.836Z,68.88
2023-03-22T04:04:29.024Z,69.21
2023-03-22T04:05:31.150Z,68.24
2023-03-22T04:06:34.903Z,68.61
2023-03-22T04:07:37.582Z,67.92
2023-03-22T04:08:39.655Z,69.10
2023-03-22T04:09:41.619Z,67.62
2023-03-22T04:10:44.392Z,68.43
2023-03-22T04:11:46.791Z,67.58
2023-03-22T04:12:49.030Z,66.80
2023-03-22T04:13:51.076Z,66.72
2023-03-22T04:14:53.403Z,66.73
2023-03-22T04:15:57.672Z,66.45
2023-03-22T04:16:59.767Z,65.96
2023-03-22T04:18:01.919Z,65.72
2023-03-22T04:19:04.010Z,65.11
2023-03-22T04:20:11.282Z,65.51
2023-03-22T04:21:13.624Z,64.86
2023-03-22T04:22:18.623Z,65.29
2023-03-22T04:23:23.263Z,64.69
2023-03-22T04:24:25.419Z,64.78
2023-03-22T04:25:30.391Z,64.36
2023-03-22T04:26:33.609Z,64.46
2023-03-22T04:27:35.717Z,64.81
2023-03-22T04:28:37.705Z,64.06
2023-03-22T04:29:39.756Z,64.17
2023-03-22T04:30:45.861Z,63.96
2023-03-22T04:31:48.262Z,63.92
2023-03-22T04:32:50.385Z,63.41
2023-03-22T04:33:56.728Z,63.52
2023-03-22T04:34:58.791Z,64.11
2023-03-22T04:36:02.539Z,64.01
2023-03-22T04:37:06.279Z,63.52
2023-03-22T04:38:09.892Z,63.04
2023-03-22T04:39:12.667Z,62.58
2023-03-22T04:40:21.078Z,62.09
2023-03-22T04:41:23.726Z,62.59
2023-03-22T04:42:26.760Z,62.67
2023-03-22T04:43:28.796Z,62.25
2023-03-22T04:44:31.108Z,63.04
2023-03-22T04:45:35.127Z,62.57
2023-03-22T04:46:37.415Z,65.61
2023-03-22T04:47:40.014Z,62.11
2023-03-22T04:48:43.071Z,61.89
2023-03-22T04:49:45.118Z,61.86
2023-03-22T04:50:47.069Z,61.56
2023-03-22T04:51:49.089Z,61.94
2023-03-22T04:52:51.228Z,61.53
2023-03-22T04:53:54.132Z,61.97
2023-03-22T04:54:56.148Z,61.52
2023-03-22T04:55:58.404Z,60.95
2023-03-22T04:57:01.276Z,61.47
2023-03-22T04:58:03.381Z,61.65
2023-03-22T04:59:05.427Z,61.24
2023-03-22T05:00:11.073Z,60.90
2023-03-22T05:01:15.062Z,60.68
2023-03-22T05:02:17.385Z,64.10
2023-03-22T05:03:21.764Z,59.79
2023-03-22T05:04:23.958Z,60.47
2023-03-22T05:05:25.997Z,59.91
2023-03-22T05:06:28.173Z,59.71
2023-03-22T05:07:30.428Z,59.58
2023-03-22T05:08:33.340Z,59.21
2023-03-22T05:09:35.552Z,59.17
2023-03-22T05:10:41.092Z,60.43
2023-03-22T05:11:43.459Z,59.75
2023-03-22T05:12:45.672Z,60.52
2023-03-22T05:13:47.588Z,59.13
2023-03-22T05:14:49.625Z,59.60
2023-03-22T05:15:52.011Z,59.21
2023-03-22T05:16:54.500Z,59.27
2023-03-22T05:17:56.534Z,59.71
2023-03-22T05:18:58.578Z,59.33
2023-03-22T05:20:08.441Z,60.07
2023-03-22T05:21:15.762Z,60.75
2023-03-22T05:22:19.450Z,59.58
2023-03-22T05:23:22.462Z,59.95
2023-03-22T05:24:24.623Z,58.86
2023-03-22T05:25:26.779Z,59.37
2023-03-22T05:26:28.958Z,59.12
2023-03-22T05:27:35.219Z,59.08
2023-03-22T05:28:38.820Z,58.83
2023-03-22T05:29:45.235Z,58.52
2023-03-22T05:30:49.055Z,58.60
2023-03-22T05:31:51.246Z,59.21
2023-03-22T05:33:03.439Z,58.84
2023-03-22T05:34:06.175Z,59.44
2023-03-22T05:35:08.624Z,60.13
2023-03-22T05:36:13.980Z,60.36
2023-03-22T05:37:17.019Z,61.05
2023-03-22T05:38:19.134Z,61.33
2023-03-22T05:39:21.244Z,60.87
2023-03-22T05:40:23.939Z,60.93
2023-03-22T05:41:26.163Z,61.37
2023-03-22T05:42:28.371Z,61.27
2023-03-22T05:43:30.468Z,61.57
2023-03-22T05:44:32.548Z,62.25
2023-03-22T05:45:37.046Z,61.91
2023-03-22T05:46:39.087Z,61.94
2023-03-22T05:47:41.205Z,61.87
2023-03-22T05:48:43.490Z,62.23
2023-03-22T05:49:45.879Z,61.95
2023-03-22T05:50:47.946Z,62.30
2023-03-22T05:51:50.736Z,62.38
2023-03-22T05:52:52.930Z,62.59
2023-03-22T05:53:55.414Z,62.18
2023-03-22T05:54:57.490Z,62.59
2023-03-22T05:56:00.909Z,62.30
2023-03-22T05:57:03.152Z,62.34
2023-03-22T05:58:05.562Z,62.40
2023-03-22T05:59:07.826Z,62.93
2023-03-22T06:00:13.585Z,62.60
2023-03-22T06:01:20.624Z,62.72
2023-03-22T06:02:23.068Z,62.56
2023-03-22T06:03:25.143Z,63.25
2023-03-22T06:04:27.354Z,62.80
2023-03-22T06:05:31.991Z,63.11
2023-03-22T06:06:33.966Z,63.35
2023-03-22T06:07:36.059Z,63.49
2023-03-22T06:08:39.694Z,63.96
2023-03-22T06:09:41.865Z,63.56
2023-03-22T06:10:43.776Z,63.42
2023-03-22T06:11:45.832Z,63.23
2023-03-22T06:12:47.940Z,63.06
2023-03-22T06:13:50.086Z,62.97
2023-03-22T06:14:52.484Z,63.10
2023-03-22T06:15:54.520Z,63.32
2023-03-22T06:16:56.680Z,63.50
2023-03-22T06:17:58.706Z,63.36
2023-03-22T06:19:00.786Z,63.60
2023-03-22T06:20:09.492Z,63.77
2023-03-22T06:21:11.444Z,63.42
2023-03-22T06:22:13.887Z,63.48
2023-03-22T06:23:16.026Z,62.60
2023-03-22T06:24:18.107Z,63.29
2023-03-22T06:25:20.158Z,63.35
2023-03-22T06:26:22.194Z,63.31
2023-03-22T06:27:24.216Z,63.22
2023-03-22T06:28:30.016Z,63.50
2023-03-22T06:29:32.069Z,63.05
2023-03-22T06:30:34.106Z,64.08
2023-03-22T06:31:36.411Z,63.86
2023-03-22T06:32:38.480Z,63.19
2023-03-22T06:33:40.458Z,63.70
2023-03-22T06:34:42.739Z,63.67
2023-03-22T06:35:44.920Z,63.86
2023-03-22T06:36:46.992Z,63.62
2023-03-22T06:37:49.126Z,63.12
2023-03-22T06:38:51.115Z,63.20
2023-03-22T06:39:53.527Z,63.33
2023-03-22T06:40:55.428Z,63.17
2023-03-22T06:41:57.457Z,63.56
2023-03-22T06:43:02.284Z,63.66
2023-03-22T06:44:06.380Z,62.88
2023-03-22T06:45:12.699Z,63.49
2023-03-22T06:46:14.815Z,63.47
2023-03-22T06:47:16.983Z,63.27
2023-03-22T06:48:19.286Z,63.25
2023-03-22T06:49:22.134Z,63.54
2023-03-22T06:50:24.091Z,63.40
2023-03-22T06:51:26.275Z,63.08
2023-03-22T06:52:28.438Z,63.42
2023-03-22T06:53:30.825Z,63.61
2023-03-22T06:54:32.949Z,63.93
2023-03-22T06:55:35.291Z,63.65
2023-03-22T06:56:37.416Z,64.31
2023-03-22T06:57:39.445Z,64.34
2023-03-22T06:58:41.889Z,64.24
2023-03-22T06:59:43.934Z,63.96
2023-03-22T07:00:46.296Z,64.11
2023-03-22T07:01:48.766Z,64.38
2023-03-22T07:02:52.769Z,63.96
2023-03-22T07:03:54.984Z,64.40
2023-03-22T07:04:56.915Z,63.71
2023-03-22T07:06:08.509Z,64.27
2023-03-22T07:07:10.534Z,64.01
2023-03-22T07:08:12.713Z,64.48
2023-03-22T07:09:14.686Z,64.59
2023-03-22T07:10:16.918Z,64.49
2023-03-22T07:11:19.014Z,64.83
2023-03-22T07:12:21.182Z,65.22
2023-03-22T07:13:23.822Z,65.14
2023-03-22T07:14:26.150Z,65.86
2023-03-22T07:15:28.389Z,65.83
2023-03-22T07:16:30.524Z,66.47
2023-03-22T07:17:32.927Z,66.53
2023-03-22T07:18:34.946Z,65.92
2023-03-22T07:19:37.069Z,65.95
2023-03-22T07:20:41.819Z,65.66
2023-03-22T07:21:44.332Z,66.49
2023-03-22T07:22:46.727Z,66.46
2023-03-22T07:23:48.763Z,66.48
2023-03-22T07:24:57.190Z,66.46
2023-03-22T07:26:01.153Z,66.94
2023-03-22T07:27:03.480Z,66.93
2023-03-22T07:56:04.213Z,69.62
2023-03-22T07:57:07.138Z,69.21
2023-03-22T07:58:09.571Z,69.33
2023-03-22T07:59:11.804Z,69.38
2023-03-22T08:00:14.968Z,68.65
2023-03-22T08:01:17.245Z,68.94
2023-03-22T08:02:19.283Z,68.97
2023-03-22T08:03:22.488Z,68.82
2023-03-22T08:04:25.319Z,69.36
2023-03-22T08:05:27.515Z,69.32
2023-03-22T08:06:30.085Z,68.94
2023-03-22T08:07:32.807Z,69.50
2023-03-22T08:08:37.252Z,69.31
2023-03-22T08:09:39.476Z,69.68
2023-03-22T08:10:41.623Z,69.47
2023-03-22T08:11:43.928Z,69.37
2023-03-22T08:12:46.008Z,69.63
2023-03-22T08:13:48.148Z,70.10
2023-03-22T08:14:51.414Z,69.97
2023-03-22T08:15:53.530Z,70.02
2023-03-22T08:16:55.814Z,70.10
2023-03-22T08:17:58.350Z,69.77
2023-03-22T08:19:00.625Z,69.85
2023-03-22T08:20:08.751Z,69.55
2023-03-22T08:21:11.300Z,70.08
2023-03-22T08:22:13.858Z,69.95
2023-03-22T08:23:16.514Z,69.53
2023-03-22T08:24:18.654Z,69.70
2023-03-22T08:25:21.820Z,69.57
2023-03-22T08:26:24.497Z,69.64
2023-03-22T08:27:27.528Z,69.72
2023-03-22T08:28:29.658Z,69.96
2023-03-22T08:29:31.818Z,69.35
2023-03-22T08:30:34.090Z,69.32
2023-03-22T08:31:36.062Z,69.55
2023-03-22T08:32:38.325Z,68.93
2023-03-22T08:33:40.531Z,68.62
2023-03-22T08:34:43.914Z,69.32
2023-03-22T08:35:46.781Z,69.06
2023-03-22T08:36:48.979Z,68.74
2023-03-22T08:37:57.310Z,69.40
2023-03-22T08:38:59.632Z,68.46
2023-03-22T08:40:01.745Z,68.76
2023-03-22T08:41:04.410Z,69.14
2023-03-22T08:42:06.435Z,68.48
2023-03-22T08:43:08.839Z,68.90
2023-03-22T08:44:11.359Z,68.83
2023-03-22T08:45:13.565Z,68.00
2023-03-22T08:46:17.366Z,67.77
2023-03-22T08:47:19.484Z,67.93
2023-03-22T08:48:21.598Z,67.50
2023-03-22T08:49:23.862Z,67.70
2023-03-22T08:50:26.116Z,67.49
2023-03-22T08:51:29.545Z,66.96
2023-03-22T08:52:31.615Z,67.87
2023-03-22T08:53:33.851Z,68.24
2023-03-22T08:54:36.339Z,68.16
2023-03-22T08:55:40.202Z,68.02
2023-03-22T08:56:42.715Z,67.85
2023-03-22T08:57:50.587Z,67.54
2023-03-22T08:58:52.597Z,68.14
2023-03-22T08:59:54.879Z,68.32
2023-03-22T09:00:56.895Z,68.35
2023-03-22T09:01:59.347Z,68.03
2023-03-22T09:03:01.497Z,67.91
2023-03-22T09:04:04.659Z,67.69
2023-03-22T09:05:07.123Z,68.34
2023-03-22T09:06:10.774Z,68.36
2023-03-22T09:07:12.955Z,68.04
2023-03-22T09:08:19.130Z,68.75
2023-03-22T09:09:21.794Z,68.21
2023-03-22T09:10:24.003Z,67.77
2023-03-22T09:11:26.293Z,67.75
2023-03-22T09:12:30.083Z,67.57
2023-03-22T09:13:32.398Z,67.98
2023-03-22T09:14:34.567Z,67.75
2023-03-22T09:15:36.875Z,67.20
2023-03-22T09:16:39.153Z,67.43
2023-03-22T09:17:42.108Z,67.49
2023-03-22T09:18:44.930Z,67.98
2023-03-22T09:19:48.118Z,67.36
2023-03-22T09:20:50.547Z,67.88
2023-03-22T09:21:52.802Z,67.39
2023-03-22T09:22:54.984Z,66.90
2023-03-22T09:23:57.451Z,66.84
2023-03-22T09:24:59.622Z,66.85
2023-03-22T09:26:04.044Z,66.86
2023-03-22T09:27:06.123Z,67.15
2023-03-22T09:28:08.215Z,67.06
2023-03-22T09:29:11.117Z,67.34
2023-03-22T09:30:13.564Z,67.21
2023-03-22T09:31:18.508Z,67.57
2023-03-22T09:32:22.357Z,67.91
2023-03-22T09:33:24.566Z,68.10
2023-03-22T09:34:27.309Z,67.89
2023-03-22T09:35:29.402Z,67.65
2023-03-22T09:36:32.602Z,67.07
2023-03-22T09:37:34.784Z,68.03
2023-03-22T09:38:36.807Z,67.13
2023-03-22T09:39:40.411Z,66.78
2023-03-22T09:41:01.021Z,67.50
2023-03-22T09:42:06.475Z,67.34
2023-03-22T09:43:12.066Z,67.10
2023-03-22T09:44:35.192Z,67.08
2023-03-22T09:45:44.222Z,66.92
2023-03-22T09:46:49.351Z,67.14
2023-03-22T09:47:55.509Z,67.19
2023-03-22T09:49:00.412Z,66.89
2023-03-22T09:50:12.167Z,67.12
2023-03-22T09:51:21.666Z,67.66
2023-03-22T09:52:23.710Z,67.34
2023-03-22T09:53:28.547Z,67.45
2023-03-22T09:54:42.227Z,67.56
2023-03-22T09:55:47.014Z,67.20
2023-03-22T09:56:59.112Z,67.59
2023-03-22T09:58:07.100Z,67.04
2023-03-22T09:59:19.089Z,66.94
2023-03-22T10:00:33.644Z,66.92
2023-03-22T10:02:00.645Z,67.19
2023-03-22T10:03:20.256Z,66.62
2023-03-22T10:04:50.120Z,66.65
2023-03-22T10:06:05.294Z,67.28
2023-03-22T10:07:39.022Z,66.98
2023-03-22T10:09:07.008Z,67.49
2023-03-22T10:10:12.352Z,66.46
2023-03-22T10:11:46.085Z,66.99
2023-03-22T10:12:58.333Z,66.91
2023-03-22T10:14:13.627Z,67.48
2023-03-22T10:15:21.645Z,66.89
2023-03-22T10:16:33.287Z,66.76
2023-03-22T10:17:37.198Z,67.00
2023-03-22T10:18:45.523Z,67.33
2023-03-22T10:20:01.179Z,67.00
2023-03-22T10:21:06.797Z,67.05
2023-03-22T10:22:16.457Z,67.55
2023-03-22T10:23:24.044Z,67.61
2023-03-22T10:24:33.203Z,67.67
2023-03-22T10:25:41.646Z,67.50
2023-03-22T10:26:47.628Z,66.93
2023-03-22T10:27:51.733Z,66.89
2023-03-22T10:28:57.835Z,66.51
2023-03-22T10:30:02.225Z,66.33
2023-03-22T10:31:07.034Z,66.45
2023-03-22T10:32:19.074Z,67.29
2023-03-22T10:33:29.488Z,66.42
2023-03-22T10:34:31.547Z,66.37
2023-03-22T10:35:33.844Z,66.22
2023-03-22T10:36:39.054Z,66.32
2023-03-22T10:37:42.897Z,66.46
2023-03-22T10:38:52.517Z,66.09
2023-03-22T10:39:56.905Z,65.62
2023-03-22T10:41:01.132Z,65.99
2023-03-22T10:42:08.327Z,65.48
2023-03-22T10:43:15.994Z,65.60
2023-03-22T10:44:19.852Z,65.17
2023-03-22T10:45:23.694Z,65.47
2023-03-22T10:46:28.649Z,65.69
2023-03-22T10:47:40.807Z,66.00
2023-03-22T10:48:46.850Z,66.29
2023-03-22T10:49:55.345Z,66.21
2023-03-22T10:51:00.025Z,65.58
2023-03-22T10:52:17.782Z,66.43
2023-03-22T10:53:38.742Z,66.05
2023-03-22T10:54:40.805Z,66.08
2023-03-22T10:55:44.521Z,65.94
2023-03-22T10:56:46.604Z,65.90
2023-03-22T10:58:12.458Z,65.61
2023-03-22T10:59:51.895Z,65.50
2023-03-22T11:00:57.278Z,65.48
2023-03-22T11:02:02.044Z,65.48
2023-03-22T11:03:07.320Z,65.66
2023-03-22T11:04:18.420Z,65.49
2023-03-22T11:05:25.130Z,65.60
2023-03-22T11:06:30.363Z,65.73
2023-03-22T11:07:32.393Z,65.89
2023-03-22T11:08:52.717Z,65.20
2023-03-22T11:10:13.458Z,64.92
2023-03-22T11:11:36.849Z,64.91
2023-03-22T11:12:42.560Z,64.58
2023-03-22T11:13:50.897Z,64.42
2023-03-22T11:14:53.097Z,64.05
2023-03-22T11:16:02.534Z,63.84
2023-03-22T11:17:13.225Z,64.44
2023-03-22T11:18:17.096Z,64.29
2023-03-22T11:19:28.536Z,64.49
2023-03-22T11:20:32.366Z,63.80
2023-03-22T11:21:34.617Z,63.33
2023-03-22T11:22:40.508Z,62.91
2023-03-22T11:23:56.702Z,63.67
2023-03-22T11:24:59.685Z,63.33
2023-03-22T11:26:26.640Z,64.07
2023-03-22T11:27:31.665Z,63.47
2023-03-22T11:28:37.763Z,62.84
2023-03-22T11:30:01.617Z,63.76
2023-03-22T11:31:11.229Z,63.38
2023-03-22T11:32:30.379Z,62.93
2023-03-22T11:33:33.837Z,63.14
2023-03-22T11:34:36.790Z,63.18
2023-03-22T11:35:39.773Z,62.46
2023-03-22T11:37:52.882Z,62.99
2023-03-22T11:39:00.470Z,62.53
2023-03-22T11:40:05.425Z,62.58
2023-03-22T11:41:13.567Z,62.69
2023-03-22T11:42:21.180Z,63.55
2023-03-22T11:43:27.832Z,62.44
2023-03-22T11:44:35.112Z,62.65
2023-03-22T11:45:43.217Z,62.51
2023-03-22T11:46:53.092Z,61.74
2023-03-22T11:48:02.371Z,62.21
2023-03-22T11:49:17.093Z,62.31
2023-03-22T11:50:46.173Z,62.08
2023-03-22T11:51:49.146Z,61.68
2023-03-22T11:52:51.454Z,62.31
2023-03-22T11:53:59.623Z,62.51
2023-03-22T11:55:02.134Z,62.22
2023-03-22T11:56:07.820Z,62.78
2023-03-22T11:57:32.429Z,62.50
2023-03-22T11:58:41.184Z,62.74
2023-03-22T12:00:07.343Z,62.65
2023-03-22T12:01:18.540Z,62.35
2023-03-22T12:02:28.792Z,62.89
2023-03-22T12:03:38.920Z,62.80
2023-03-22T12:04:44.500Z,62.28
2023-03-22T12:05:50.065Z,62.80
2023-03-22T12:07:00.015Z,62.37
2023-03-22T12:08:19.631Z,62.84
2023-03-22T12:09:53.468Z,63.01
2023-03-22T12:11:26.148Z,63.05
2023-03-22T12:12:33.610Z,62.99
2023-03-22T12:14:05.485Z,62.95
2023-03-22T12:15:21.297Z,62.90
2023-03-22T12:16:29.692Z,62.24
2023-03-22T12:18:01.909Z,62.99
2023-03-22T12:19:23.880Z,62.41
2023-03-22T12:20:42.435Z,63.01
2023-03-22T12:21:46.538Z,62.64
2023-03-22T12:22:55.387Z,62.05
2023-03-22T12:24:02.636Z,62.07
2023-03-22T12:25:11.342Z,62.08
2023-03-22T12:26:26.615Z,62.42
2023-03-22T12:27:36.134Z,62.00
2023-03-22T12:28:50.026Z,62.22
2023-03-22T12:30:01.551Z,62.30
2023-03-22T12:31:08.274Z,62.48
2023-03-22T12:32:19.589Z,62.64
2023-03-22T12:33:56.742Z,62.86
2023-03-22T12:35:16.078Z,61.85
2023-03-22T12:36:32.275Z,61.89
2023-03-22T12:37:36.271Z,62.35
2023-03-22T12:38:40.933Z,62.19
2023-03-22T12:40:11.476Z,62.05
2023-03-22T12:41:17.269Z,62.33
2023-03-22T12:42:26.121Z,62.53
2023-03-22T12:43:30.965Z,62.46
2023-03-22T12:44:39.618Z,62.40
2023-03-22T12:45:48.009Z,62.53
2023-03-22T12:46:57.086Z,63.05
2023-03-22T12:48:17.529Z,62.56
2023-03-22T12:49:41.682Z,62.48
2023-03-22T12:51:01.143Z,62.33
2023-03-22T12:52:15.877Z,62.07
2023-03-22T12:53:20.393Z,62.20
2023-03-22T12:54:36.040Z,62.46
2023-03-22T12:55:41.334Z,62.50
2023-03-22T12:56:47.337Z,61.91
2023-03-22T12:57:54.854Z,61.82
2023-03-22T12:59:01.491Z,62.23
2023-03-22T13:00:10.640Z,62.58
2023-03-22T13:01:40.205Z,62.51
2023-03-22T13:02:56.226Z,63.18
2023-03-22T13:03:59.745Z,62.53
2023-03-22T13:05:05.338Z,62.27
2023-03-22T13:06:29.994Z,61.98
2023-03-22T13:07:53.572Z,62.28
2023-03-22T13:09:09.036Z,62.87
2023-03-22T13:10:30.340Z,62.57
2023-03-22T13:11:32.410Z,62.44
2023-03-22T13:12:34.968Z,62.23
2023-03-22T13:13:47.222Z,62.90
2023-03-22T13:14:52.249Z,62.26
2023-03-22T13:16:24.838Z,62.79
2023-03-22T13:17:27.677Z,62.61
2023-03-22T13:18:33.556Z,62.41
2023-03-22T13:19:37.744Z,62.29
2023-03-22T13:20:41.363Z,62.12
2023-03-22T13:21:43.631Z,61.93
2023-03-22T13:22:48.647Z,62.57
2023-03-22T13:24:01.444Z,62.63
2023-03-22T13:25:13.292Z,62.61
2023-03-22T13:26:16.436Z,63.24
2023-03-22T13:27:18.281Z,62.92
2023-03-22T13:28:24.763Z,62.84
2023-03-22T13:29:38.355Z,62.20
2023-03-22T13:30:55.041Z,62.50
2023-03-22T13:32:02.202Z,62.31
2023-03-22T13:33:10.584Z,62.58
2023-03-22T13:34:20.658Z,62.60
2023-03-22T13:35:28.778Z,62.33
2023-03-22T13:36:32.278Z,62.41
2023-03-22T13:37:52.394Z,62.86
2023-03-22T13:39:04.900Z,62.34
2023-03-22T13:40:26.554Z,63.06
2023-03-22T13:41:31.376Z,62.10
2023-03-22T13:42:39.075Z,62.32
2023-03-22T13:43:44.385Z,62.56
2023-03-22T13:44:57.355Z,62.98
2023-03-22T13:46:17.865Z,62.99
2023-03-22T13:47:32.098Z,62.06
2023-03-22T13:48:52.736Z,63.14
2023-03-22T13:50:01.364Z,63.10
2023-03-22T13:51:25.767Z,62.52
2023-03-22T13:52:35.950Z,62.59
2023-03-22T13:53:41.675Z,62.68
2023-03-22T13:54:49.774Z,63.16
2023-03-22T13:55:52.017Z,62.69
2023-03-22T13:57:02.329Z,63.00
2023-03-22T13:58:06.121Z,62.60
2023-03-22T13:59:23.233Z,62.99
2023-03-22T14:00:31.505Z,63.38
2023-03-22T14:01:47.628Z,63.43
2023-03-22T14:02:50.847Z,63.03
2023-03-22T14:03:54.060Z,63.32
2023-03-22T14:05:08.296Z,63.41
2023-03-22T14:06:26.318Z,63.66
2023-03-22T14:07:56.627Z,63.70
2023-03-22T14:09:02.936Z,62.98
2023-03-22T14:10:26.459Z,63.31
2023-03-22T14:11:49.753Z,63.30
2023-03-22T14:12:57.717Z,63.84
2023-03-22T14:14:05.413Z,63.33
2023-03-22T14:15:09.226Z,63.47
2023-03-22T14:16:18.669Z,63.95
2023-03-22T14:17:56.431Z,63.38
2023-03-22T14:18:58.852Z,63.97
2023-03-22T14:20:05.076Z,63.85
2023-03-22T14:21:13.661Z,63.99
